createdAt,value
2018-11-27T00:00:24.329Z,0.00
2018-11-27T00:01:24.298Z,0.00
2018-11-27T00:02:24.307Z,0.00
2018-11-27T00:03:24.291Z,0.00
2018-11-27T00:04:24.311Z,0.00
2018-11-27T00:05:24.293Z,0.00
2018-11-27T00:06:24.279Z,0.00
2018-11-27T00:07:24.279Z,0.00
2018-11-27T00:08:24.280Z,0.00
2018-11-27T00:09:24.285Z,0.00
2018-11-27T00:10:24.282Z,0.00
2018-11-27T00:11:24.271Z,0.00
2018-11-27T00:12:24.244Z,0.00
2018-11-27T00:13:24.249Z,0.00
2018-11-27T00:14:24.248Z,0.00
2018-11-27T00:15:24.238Z,0.00
2018-11-27T00:16:24.425Z,0.00
2018-11-27T00:17:24.235Z,0.00
2018-11-27T00:18:24.212Z,0.00
2018-11-27T00:19:24.419Z,0.00
2018-11-27T00:20:24.214Z,0.00
2018-11-27T00:21:24.201Z,0.00
2018-11-27T00:22:24.199Z,0.00
2018-11-27T00:23:24.197Z,0.00
2018-11-27T00:24:24.183Z,0.00
2018-11-27T00:25:24.179Z,0.00
2018-11-27T00:26:24.202Z,0.00
2018-11-27T00:27:24.173Z,0.00
2018-11-27T00:28:24.186Z,0.00
2018-11-27T00:29:24.166Z,0.00
2018-11-27T00:30:24.148Z,0.00
2018-11-27T00:31:24.144Z,0.00
2018-11-27T00:32:24.343Z,0.00
2018-11-27T00:33:24.138Z,0.00
2018-11-27T00:34:24.132Z,0.00
2018-11-27T00:35:24.343Z,0.00
2018-11-27T00:36:24.119Z,0.00
2018-11-27T00:37:24.114Z,0.00
2018-11-27T00:38:24.125Z,0.00
2018-11-27T00:39:24.128Z,0.00
2018-11-27T00:40:24.112Z,0.00
2018-11-27T00:41:24.098Z,0.00
2018-11-27T00:42:24.090Z,0.00
2018-11-27T00:43:24.088Z,0.00
2018-11-27T00:44:24.080Z,0.00
2018-11-27T00:45:24.077Z,0.00
2018-11-27T00:46:24.080Z,0.00
2018-11-27T00:47:24.064Z,0.00
2018-11-27T00:48:24.263Z,0.00
2018-11-27T00:49:24.054Z,0.00
2018-11-27T00:50:24.049Z,0.00
2018-11-27T00:51:24.047Z,0.00
2018-11-27T00:52:24.053Z,0.00
2018-11-27T00:53:24.052Z,0.00
2018-11-27T00:54:24.034Z,0.00
2018-11-27T00:55:24.027Z,0.00
2018-11-27T00:56:24.226Z,0.00
2018-11-27T00:57:24.018Z,0.00
2018-11-27T00:58:24.012Z,0.00
2018-11-27T00:59:24.210Z,0.00
2018-11-27T01:00:24.014Z,0.00
2018-11-27T01:01:23.997Z,0.00
2018-11-27T01:02:23.996Z,0.00
2018-11-27T01:03:23.990Z,0.00
2018-11-27T01:04:23.999Z,0.00
2018-11-27T01:05:23.979Z,0.00
2018-11-27T01:06:23.979Z,0.00
2018-11-27T01:07:23.973Z,0.00
2018-11-27T01:08:23.968Z,0.00
2018-11-27T01:09:23.975Z,0.00
2018-11-27T01:10:23.958Z,0.00
2018-11-27T01:11:24.158Z,0.00
2018-11-27T01:12:23.946Z,0.00
2018-11-27T01:13:23.956Z,0.00
2018-11-27T01:14:23.953Z,0.00
2018-11-27T01:15:24.139Z,0.00
2018-11-27T01:16:23.928Z,0.00
2018-11-27T01:17:23.942Z,0.00
2018-11-27T01:18:23.930Z,0.00
2018-11-27T01:19:23.916Z,0.00
2018-11-27T01:20:23.932Z,0.00
2018-11-27T01:21:23.906Z,0.00
2018-11-27T01:22:23.910Z,0.00
2018-11-27T01:23:23.894Z,0.00
2018-11-27T01:24:23.901Z,0.00
2018-11-27T01:25:24.106Z,0.00
2018-11-27T01:26:23.886Z,0.00
2018-11-27T01:27:23.888Z,0.00
2018-11-27T01:28:23.881Z,0.00
2018-11-27T01:29:23.878Z,0.00
2018-11-27T01:30:24.061Z,0.00
2018-11-27T01:31:23.867Z,0.00
2018-11-27T01:32:24.053Z,0.00
2018-11-27T01:33:23.849Z,0.00
2018-11-27T01:34:23.865Z,0.00
2018-11-27T01:35:24.066Z,0.00
2018-11-27T01:36:23.831Z,0.00
2018-11-27T01:37:23.856Z,0.00
2018-11-27T01:38:23.846Z,0.00
2018-11-27T01:39:23.819Z,0.00
2018-11-27T01:40:23.827Z,0.00
2018-11-27T01:41:23.819Z,0.00
2018-11-27T01:42:23.813Z,0.00
2018-11-27T01:43:23.813Z,0.00
2018-11-27T01:44:23.810Z,0.00
2018-11-27T01:45:23.790Z,0.00
2018-11-27T01:46:23.782Z,0.00
2018-11-27T01:47:23.781Z,0.00
2018-11-27T01:48:23.773Z,0.00
2018-11-27T01:49:23.779Z,0.00
2018-11-27T01:50:23.767Z,0.00
2018-11-27T01:51:23.986Z,0.00
2018-11-27T01:52:23.756Z,0.00
2018-11-27T01:53:23.749Z,0.00
2018-11-27T01:54:23.755Z,0.00
2018-11-27T01:55:23.742Z,0.00
2018-11-27T01:56:23.736Z,0.00
2018-11-27T01:57:23.931Z,0.00
2018-11-27T01:58:23.724Z,0.00
2018-11-27T01:59:23.722Z,0.00
2018-11-27T02:00:23.725Z,0.00
2018-11-27T02:01:23.710Z,0.00
2018-11-27T02:02:23.706Z,0.00
2018-11-27T02:03:23.715Z,0.00
2018-11-27T02:04:23.702Z,0.00
2018-11-27T02:05:23.898Z,0.00
2018-11-27T02:06:23.701Z,0.00
2018-11-27T02:07:23.693Z,0.00
2018-11-27T02:08:23.890Z,0.00
2018-11-27T02:09:23.673Z,0.00
2018-11-27T02:10:23.668Z,0.00
2018-11-27T02:11:23.661Z,0.00
2018-11-27T02:12:23.667Z,0.00
2018-11-27T02:13:23.651Z,0.00
2018-11-27T02:14:23.663Z,0.00
2018-11-27T02:15:23.644Z,0.00
2018-11-27T02:16:23.647Z,0.00
2018-11-27T02:17:23.649Z,0.00
2018-11-27T02:18:23.644Z,0.00
2018-11-27T02:19:23.650Z,0.00
2018-11-27T02:20:23.620Z,0.00
2018-11-27T02:21:23.614Z,0.00
2018-11-27T02:22:23.608Z,0.00
2018-11-27T02:23:23.602Z,0.00
2018-11-27T02:24:23.599Z,0.00
2018-11-27T02:25:23.617Z,0.00
2018-11-27T02:26:23.588Z,0.00
2018-11-27T02:27:23.597Z,0.00
2018-11-27T02:28:23.595Z,0.00
2018-11-27T02:29:23.577Z,0.00
2018-11-27T02:30:23.597Z,0.00
2018-11-27T02:31:23.782Z,0.00
2018-11-27T02:32:23.776Z,0.00
2018-11-27T02:33:23.556Z,0.00
2018-11-27T02:34:23.764Z,0.00
2018-11-27T02:35:23.547Z,0.00
2018-11-27T02:36:23.586Z,0.00
2018-11-27T02:37:23.547Z,0.00
2018-11-27T02:38:23.541Z,0.00
2018-11-27T02:39:23.526Z,0.00
2018-11-27T02:40:23.527Z,0.00
2018-11-27T02:41:23.527Z,0.00
2018-11-27T02:42:23.514Z,0.00
2018-11-27T02:43:23.519Z,0.00
2018-11-27T02:44:23.703Z,0.00
2018-11-27T02:45:23.494Z,0.00
2018-11-27T02:46:23.494Z,0.00
2018-11-27T02:47:23.714Z,0.00
2018-11-27T02:48:23.495Z,0.00
2018-11-27T02:49:23.493Z,0.00
2018-11-27T02:50:23.483Z,0.00
2018-11-27T02:51:23.514Z,0.00
2018-11-27T02:52:23.466Z,0.00
2018-11-27T02:53:23.468Z,0.00
2018-11-27T02:54:23.451Z,0.00
2018-11-27T02:55:23.653Z,0.00
2018-11-27T02:56:23.458Z,0.00
2018-11-27T02:57:23.449Z,0.00
2018-11-27T02:58:23.446Z,0.00
2018-11-27T02:59:23.642Z,0.00
2018-11-27T03:00:23.429Z,0.00
2018-11-27T03:01:23.621Z,0.00
2018-11-27T03:02:23.620Z,0.00
2018-11-27T03:03:23.411Z,0.00
2018-11-27T03:04:23.404Z,0.00
2018-11-27T03:05:23.402Z,0.00
2018-11-27T03:06:23.424Z,0.00
2018-11-27T03:07:23.618Z,0.00
2018-11-27T03:08:23.390Z,0.00
2018-11-27T03:09:23.592Z,0.00
2018-11-27T03:10:23.375Z,0.00
2018-11-27T03:11:23.380Z,0.00
2018-11-27T03:12:23.374Z,0.00
2018-11-27T03:13:23.360Z,0.00
2018-11-27T03:14:23.355Z,0.00
2018-11-27T03:15:23.350Z,0.00
2018-11-27T03:16:23.352Z,0.00
2018-11-27T03:17:23.352Z,0.00
2018-11-27T03:18:23.338Z,0.00
2018-11-27T03:19:23.341Z,0.00
2018-11-27T03:20:23.337Z,0.00
2018-11-27T03:21:23.317Z,0.00
2018-11-27T03:22:23.525Z,0.00
2018-11-27T03:23:23.309Z,0.00
2018-11-27T03:24:23.303Z,0.00
2018-11-27T03:25:23.307Z,0.00
2018-11-27T03:26:23.292Z,0.00
2018-11-27T03:27:23.301Z,0.00
2018-11-27T03:28:23.498Z,0.00
2018-11-27T03:29:23.502Z,0.00
2018-11-27T03:30:23.288Z,0.00
2018-11-27T03:31:23.280Z,0.00
2018-11-27T03:32:23.478Z,0.00
2018-11-27T03:33:23.266Z,0.00
2018-11-27T03:34:23.250Z,0.00
2018-11-27T03:35:23.452Z,0.00
2018-11-27T03:36:23.242Z,0.00
2018-11-27T03:37:23.250Z,0.00
2018-11-27T03:38:23.237Z,0.00
2018-11-27T03:39:23.225Z,0.00
2018-11-27T03:40:23.429Z,0.00
2018-11-27T03:41:23.228Z,0.00
2018-11-27T03:42:23.427Z,0.00
2018-11-27T03:43:23.234Z,0.00
2018-11-27T03:44:23.208Z,0.00
2018-11-27T03:45:23.398Z,0.00
2018-11-27T03:46:23.392Z,0.00
2018-11-27T03:47:23.209Z,0.00
2018-11-27T03:48:23.187Z,0.00
2018-11-27T03:49:23.376Z,0.00
2018-11-27T03:50:23.177Z,0.00
2018-11-27T03:51:23.162Z,0.00
2018-11-27T03:52:23.169Z,0.00
2018-11-27T03:53:23.148Z,0.00
2018-11-27T03:54:23.172Z,0.00
2018-11-27T03:55:23.148Z,0.00
2018-11-27T03:56:23.133Z,0.00
2018-11-27T03:57:23.130Z,0.00
2018-11-27T03:58:23.137Z,0.00
2018-11-27T03:59:23.118Z,0.00
2018-11-27T04:00:23.119Z,0.00
2018-11-27T04:01:23.109Z,0.00
2018-11-27T04:02:23.305Z,0.00
2018-11-27T04:03:23.117Z,0.00
2018-11-27T04:04:23.094Z,0.00
2018-11-27T04:05:23.288Z,0.00
2018-11-27T04:06:23.084Z,0.00
2018-11-27T04:07:23.108Z,0.00
2018-11-27T04:08:23.069Z,0.00
2018-11-27T04:09:23.067Z,0.00
2018-11-27T04:10:23.062Z,0.00
2018-11-27T04:11:23.055Z,0.00
2018-11-27T04:12:23.068Z,0.00
2018-11-27T04:13:23.053Z,0.00
2018-11-27T04:14:23.048Z,0.00
2018-11-27T04:15:23.029Z,0.00
2018-11-27T04:16:23.052Z,0.00
2018-11-27T04:17:23.035Z,0.00
2018-11-27T04:18:23.028Z,0.00
2018-11-27T04:19:23.062Z,0.00
2018-11-27T04:20:23.013Z,0.00
2018-11-27T04:21:22.998Z,0.00
2018-11-27T04:22:23.005Z,0.00
2018-11-27T04:23:22.996Z,0.00
2018-11-27T04:24:22.995Z,0.00
2018-11-27T04:25:22.994Z,0.00
2018-11-27T04:26:22.981Z,0.00
2018-11-27T04:27:22.980Z,0.00
2018-11-27T04:28:22.963Z,0.00
2018-11-27T04:29:22.962Z,0.00
2018-11-27T04:30:22.947Z,0.00
2018-11-27T04:31:23.146Z,0.00
2018-11-27T04:32:22.948Z,0.00
2018-11-27T04:33:22.953Z,0.00
2018-11-27T04:34:23.138Z,0.00
2018-11-27T04:35:22.924Z,0.00
2018-11-27T04:36:22.916Z,0.00
2018-11-27T04:37:22.923Z,0.00
2018-11-27T04:38:22.904Z,0.00
2018-11-27T04:39:23.114Z,0.00
2018-11-27T04:40:22.894Z,0.00
2018-11-27T04:41:23.100Z,0.00
2018-11-27T04:42:22.898Z,0.00
2018-11-27T04:43:22.942Z,0.00
2018-11-27T04:44:23.081Z,0.00
2018-11-27T04:45:22.883Z,0.00
2018-11-27T04:46:22.864Z,0.00
2018-11-27T04:47:22.869Z,0.00
2018-11-27T04:48:22.861Z,0.00
2018-11-27T04:49:22.854Z,0.00
2018-11-27T04:50:23.038Z,0.00
2018-11-27T04:51:22.845Z,0.00
2018-11-27T04:52:22.853Z,0.00
2018-11-27T04:53:22.822Z,0.00
2018-11-27T04:54:22.812Z,0.00
2018-11-27T04:55:23.032Z,0.00
2018-11-27T04:56:23.012Z,0.00
2018-11-27T04:57:22.999Z,0.00
2018-11-27T04:58:22.788Z,0.00
2018-11-27T04:59:22.812Z,0.00
2018-11-27T05:00:22.793Z,0.00
2018-11-27T05:01:22.775Z,0.00
2018-11-27T05:02:22.982Z,0.00
2018-11-27T05:03:22.765Z,0.00
2018-11-27T05:04:22.760Z,0.00
2018-11-27T05:05:22.766Z,0.00
2018-11-27T05:06:22.772Z,0.00
2018-11-27T05:07:22.766Z,0.00
2018-11-27T05:08:22.736Z,0.00
2018-11-27T05:09:22.731Z,0.00
2018-11-27T05:10:22.732Z,0.00
2018-11-27T05:11:22.719Z,0.00
2018-11-27T05:12:22.730Z,0.00
2018-11-27T05:13:22.711Z,0.00
2018-11-27T05:14:22.721Z,0.00
2018-11-27T05:15:22.694Z,0.00
2018-11-27T05:16:22.690Z,0.00
2018-11-27T05:17:22.685Z,0.00
2018-11-27T05:18:22.682Z,0.00
2018-11-27T05:19:22.686Z,0.00
2018-11-27T05:20:22.869Z,0.00
2018-11-27T05:21:22.869Z,0.00
2018-11-27T05:22:22.658Z,0.00
2018-11-27T05:23:22.657Z,0.00
2018-11-27T05:24:22.660Z,0.00
2018-11-27T05:25:22.637Z,0.00
2018-11-27T05:26:22.848Z,0.00
2018-11-27T05:27:22.625Z,0.00
2018-11-27T05:28:22.625Z,0.00
2018-11-27T05:29:22.614Z,0.00
2018-11-27T05:30:22.612Z,0.00
2018-11-27T05:31:22.602Z,0.00
2018-11-27T05:32:22.814Z,0.00
2018-11-27T05:33:22.602Z,0.00
2018-11-27T05:34:22.586Z,0.00
2018-11-27T05:35:22.585Z,0.00
2018-11-27T05:36:22.581Z,0.00
2018-11-27T05:37:22.576Z,0.00
2018-11-27T05:38:22.780Z,0.00
2018-11-27T05:39:22.570Z,0.00
2018-11-27T05:40:22.554Z,0.00
2018-11-27T05:41:22.569Z,0.00
2018-11-27T05:42:22.742Z,0.00
2018-11-27T05:43:22.545Z,0.00
2018-11-27T05:44:22.565Z,0.00
2018-11-27T05:45:22.522Z,0.00
2018-11-27T05:46:22.719Z,0.00
2018-11-27T05:47:22.511Z,0.00
2018-11-27T05:48:22.506Z,0.00
2018-11-27T05:49:22.702Z,0.00
2018-11-27T05:50:22.500Z,0.00
2018-11-27T05:51:22.496Z,0.00
2018-11-27T05:52:22.496Z,0.00
2018-11-27T05:53:22.477Z,0.00
2018-11-27T05:54:22.482Z,0.00
2018-11-27T05:55:22.467Z,0.00
2018-11-27T05:56:22.674Z,0.00
2018-11-27T05:57:22.454Z,0.00
2018-11-27T05:58:22.494Z,0.00
2018-11-27T05:59:22.445Z,0.00
2018-11-27T06:00:22.443Z,0.00
2018-11-27T06:01:22.435Z,0.00
2018-11-27T06:02:22.430Z,0.00
2018-11-27T06:03:22.435Z,0.00
2018-11-27T06:04:22.418Z,0.00
2018-11-27T06:05:22.410Z,0.00
2018-11-27T06:06:22.406Z,0.00
2018-11-27T06:07:22.400Z,0.00
2018-11-27T06:08:22.402Z,0.00
2018-11-27T06:09:22.389Z,0.00
2018-11-27T06:10:22.385Z,0.00
2018-11-27T06:11:22.582Z,0.00
2018-11-27T06:12:22.575Z,0.00
2018-11-27T06:13:22.368Z,0.00
2018-11-27T06:14:22.362Z,0.00
2018-11-27T06:15:22.357Z,0.00
2018-11-27T06:16:22.354Z,0.00
2018-11-27T06:17:22.346Z,0.00
2018-11-27T06:18:22.359Z,0.00
2018-11-27T06:19:22.346Z,0.00
2018-11-27T06:20:22.331Z,0.00
2018-11-27T06:21:22.335Z,0.00
2018-11-27T06:22:22.319Z,0.00
2018-11-27T06:23:22.314Z,0.00
2018-11-27T06:24:22.312Z,0.00
2018-11-27T06:25:22.517Z,0.00
2018-11-27T06:26:22.309Z,0.00
2018-11-27T06:27:22.299Z,0.00
2018-11-27T06:28:22.288Z,0.00
2018-11-27T06:29:22.501Z,0.00
2018-11-27T06:30:22.281Z,0.00
2018-11-27T06:31:22.277Z,0.00
2018-11-27T06:32:22.277Z,0.00
2018-11-27T06:33:22.263Z,0.00
2018-11-27T06:34:22.257Z,0.00
2018-11-27T06:35:22.465Z,0.00
2018-11-27T06:36:22.245Z,0.00
2018-11-27T06:37:22.240Z,0.00
2018-11-27T06:38:22.453Z,0.00
2018-11-27T06:39:22.242Z,0.00
2018-11-27T06:40:22.239Z,0.00
2018-11-27T06:41:22.225Z,0.00
2018-11-27T06:42:22.218Z,0.00
2018-11-27T06:43:22.211Z,0.00
2018-11-27T06:44:22.209Z,0.00
2018-11-27T06:45:22.202Z,0.00
2018-11-27T06:46:22.194Z,0.00
2018-11-27T06:47:22.191Z,0.00
2018-11-27T06:48:22.190Z,0.00
2018-11-27T06:49:22.182Z,0.00
2018-11-27T06:50:22.177Z,0.00
2018-11-27T06:51:22.204Z,0.00
2018-11-27T06:52:22.204Z,0.00
2018-11-27T06:53:22.192Z,0.00
2018-11-27T06:54:22.153Z,0.00
2018-11-27T06:55:22.173Z,0.00
2018-11-27T06:56:22.142Z,0.00
2018-11-27T06:57:22.341Z,0.00
2018-11-27T06:58:22.369Z,0.00
2018-11-27T06:59:22.147Z,0.00
2018-11-27T07:00:22.123Z,0.00
2018-11-27T07:01:22.129Z,0.00
2018-11-27T07:02:22.113Z,0.00
2018-11-27T07:03:22.110Z,0.00
2018-11-27T07:04:22.103Z,0.00
2018-11-27T07:05:22.101Z,0.00
2018-11-27T07:06:22.092Z,0.00
2018-11-27T07:07:22.086Z,0.00
2018-11-27T07:08:22.084Z,0.00
2018-11-27T07:09:22.107Z,0.00
2018-11-27T07:10:22.073Z,0.00
2018-11-27T07:11:22.066Z,0.00
2018-11-27T07:12:22.062Z,0.00
2018-11-27T07:13:22.058Z,0.00
2018-11-27T07:14:22.057Z,0.00
2018-11-27T07:15:22.045Z,0.00
2018-11-27T07:16:22.041Z,0.00
2018-11-27T07:17:22.039Z,0.00
2018-11-27T07:18:22.034Z,0.00
2018-11-27T07:19:22.037Z,0.00
2018-11-27T07:20:22.032Z,0.00
2018-11-27T07:21:22.027Z,0.00
2018-11-27T07:22:22.013Z,0.00
2018-11-27T07:23:22.006Z,0.00
2018-11-27T07:24:22.214Z,0.00
2018-11-27T07:25:21.997Z,0.00
2018-11-27T07:26:21.992Z,0.00
2018-11-27T07:27:21.997Z,0.00
2018-11-27T07:28:22.194Z,0.00
2018-11-27T07:29:21.985Z,0.00
2018-11-27T07:30:21.981Z,0.00
2018-11-27T07:31:21.966Z,0.00
2018-11-27T07:32:21.958Z,0.00
2018-11-27T07:33:21.955Z,0.00
2018-11-27T07:34:21.953Z,0.00
2018-11-27T07:35:21.946Z,0.00
2018-11-27T07:36:21.940Z,0.00
2018-11-27T07:37:21.944Z,0.00
2018-11-27T07:38:21.931Z,0.00
2018-11-27T07:39:22.149Z,0.00
2018-11-27T07:40:21.945Z,0.00
2018-11-27T07:41:21.914Z,0.00
2018-11-27T07:42:21.921Z,0.00
2018-11-27T07:43:22.203Z,0.00
2018-11-27T07:44:21.901Z,0.00
2018-11-27T07:45:21.892Z,0.00
2018-11-27T07:46:21.892Z,0.00
2018-11-27T07:47:21.888Z,0.00
2018-11-27T07:48:21.890Z,0.00
2018-11-27T07:49:21.874Z,0.00
2018-11-27T07:50:22.083Z,0.00
2018-11-27T07:51:21.866Z,0.00
2018-11-27T07:52:21.859Z,0.00
2018-11-27T07:53:21.869Z,0.00
2018-11-27T07:54:21.849Z,0.00
2018-11-27T07:55:21.860Z,0.00
2018-11-27T07:56:21.838Z,0.00
2018-11-27T07:57:21.832Z,0.00
2018-11-27T07:58:21.838Z,0.00
2018-11-27T07:59:21.833Z,0.00
2018-11-27T08:00:21.817Z,0.00
2018-11-27T08:01:21.811Z,5.63
2018-11-27T08:02:21.807Z,5.63
2018-11-27T08:03:21.800Z,5.63
2018-11-27T08:04:21.808Z,5.63
2018-11-27T08:05:21.791Z,5.63
2018-11-27T08:06:21.815Z,5.63
2018-11-27T08:07:21.796Z,5.63
2018-11-27T08:08:21.776Z,5.63
2018-11-27T08:09:27.003Z,5.63
2018-11-27T08:10:21.770Z,5.63
2018-11-27T08:11:21.965Z,5.63
2018-11-27T08:12:21.759Z,5.63
2018-11-27T08:13:21.956Z,5.63
2018-11-27T08:14:21.759Z,5.63
2018-11-27T08:15:21.749Z,5.63
2018-11-27T08:16:21.749Z,5.63
2018-11-27T08:17:21.733Z,5.63
2018-11-27T08:18:21.735Z,5.63
2018-11-27T08:19:21.724Z,5.63
2018-11-27T08:20:21.732Z,5.63
2018-11-27T08:21:21.919Z,5.63
2018-11-27T08:22:21.928Z,5.63
2018-11-27T08:23:21.907Z,5.63
2018-11-27T08:24:21.699Z,5.63
2018-11-27T08:25:21.695Z,5.63
2018-11-27T08:26:21.705Z,5.63
2018-11-27T08:27:21.689Z,5.63
2018-11-27T08:28:21.681Z,5.63
2018-11-27T08:29:21.881Z,5.63
2018-11-27T08:30:21.887Z,5.63
2018-11-27T08:31:21.665Z,5.63
2018-11-27T08:32:21.864Z,5.63
2018-11-27T08:33:21.863Z,5.63
2018-11-27T08:34:21.866Z,11.25
2018-11-27T08:35:21.647Z,11.25
2018-11-27T08:36:21.641Z,11.25
2018-11-27T08:37:21.638Z,11.25
2018-11-27T08:38:21.633Z,5.63
2018-11-27T08:39:21.626Z,5.63
2018-11-27T08:40:21.651Z,5.63
2018-11-27T08:41:21.623Z,5.63
2018-11-27T08:42:21.613Z,5.63
2018-11-27T08:43:21.610Z,5.63
2018-11-27T08:44:21.609Z,11.25
2018-11-27T08:45:21.601Z,11.25
2018-11-27T08:46:21.596Z,11.25
2018-11-27T08:47:21.604Z,11.25
2018-11-27T08:48:21.798Z,11.25
2018-11-27T08:49:21.584Z,11.25
2018-11-27T08:50:21.783Z,11.25
2018-11-27T08:51:21.574Z,11.25
2018-11-27T08:52:21.780Z,11.25
2018-11-27T08:53:21.594Z,11.25
2018-11-27T08:54:21.773Z,11.25
2018-11-27T08:55:21.754Z,11.25
2018-11-27T08:56:21.551Z,11.25
2018-11-27T08:57:21.559Z,11.25
2018-11-27T08:58:21.540Z,11.25
2018-11-27T08:59:21.592Z,11.25
2018-11-27T09:00:21.529Z,11.25
2018-11-27T09:01:21.523Z,11.25
2018-11-27T09:02:21.541Z,11.25
2018-11-27T09:03:21.513Z,11.25
2018-11-27T09:04:21.514Z,11.25
2018-11-27T09:05:21.508Z,11.25
2018-11-27T09:06:21.516Z,11.25
2018-11-27T09:07:21.505Z,11.25
2018-11-27T09:08:21.506Z,11.25
2018-11-27T09:09:21.499Z,11.25
2018-11-27T09:10:21.494Z,11.25
2018-11-27T09:11:21.492Z,11.25
2018-11-27T09:12:21.474Z,11.25
2018-11-27T09:13:21.473Z,11.25
2018-11-27T09:14:21.680Z,11.25
2018-11-27T09:15:21.463Z,11.25
2018-11-27T09:16:21.674Z,11.25
2018-11-27T09:17:21.474Z,11.25
2018-11-27T09:18:21.456Z,11.25
2018-11-27T09:19:21.441Z,11.25
2018-11-27T09:20:21.665Z,11.25
2018-11-27T09:21:21.445Z,11.25
2018-11-27T09:22:21.440Z,11.25
2018-11-27T09:23:21.425Z,11.25
2018-11-27T09:24:21.451Z,11.25
2018-11-27T09:25:21.438Z,11.25
2018-11-27T09:26:21.427Z,11.25
2018-11-27T09:27:21.417Z,11.25
2018-11-27T09:28:21.604Z,11.25
2018-11-27T09:29:21.404Z,11.25
2018-11-27T09:30:21.397Z,11.25
2018-11-27T09:31:21.403Z,16.88
2018-11-27T09:32:21.398Z,16.88
2018-11-27T09:33:21.383Z,16.88
2018-11-27T09:34:21.393Z,16.88
2018-11-27T09:35:21.379Z,16.88
2018-11-27T09:36:21.375Z,16.88
2018-11-27T09:37:21.369Z,16.88
2018-11-27T09:38:21.358Z,16.88
2018-11-27T09:39:21.363Z,16.88
2018-11-27T09:40:21.361Z,16.88
2018-11-27T09:41:21.358Z,16.88
2018-11-27T09:42:21.340Z,16.88
2018-11-27T09:43:21.346Z,16.88
2018-11-27T09:44:21.334Z,16.88
2018-11-27T09:45:21.327Z,16.88
2018-11-27T09:46:21.325Z,16.88
2018-11-27T09:47:21.319Z,16.88
2018-11-27T09:48:21.325Z,16.88
2018-11-27T09:49:21.314Z,16.88
2018-11-27T09:50:21.506Z,16.88
2018-11-27T09:51:21.297Z,16.88
2018-11-27T09:52:21.291Z,16.88
2018-11-27T09:53:21.301Z,22.50
2018-11-27T09:54:21.484Z,22.50
2018-11-27T09:55:21.278Z,22.50
2018-11-27T09:56:21.273Z,22.50
2018-11-27T09:57:21.472Z,22.50
2018-11-27T09:58:21.465Z,22.50
2018-11-27T09:59:21.261Z,22.50
2018-11-27T10:00:21.256Z,22.50
2018-11-27T10:01:21.252Z,22.50
2018-11-27T10:02:21.252Z,22.50
2018-11-27T10:03:21.243Z,22.50
2018-11-27T10:04:21.249Z,22.50
2018-11-27T10:05:21.231Z,22.50
2018-11-27T10:06:21.228Z,22.50
2018-11-27T10:07:21.222Z,28.13
2018-11-27T10:08:21.220Z,28.13
2018-11-27T10:09:21.217Z,28.13
2018-11-27T10:10:21.229Z,28.13
2018-11-27T10:11:21.426Z,28.13
2018-11-27T10:12:21.751Z,28.13
2018-11-27T10:13:21.246Z,28.13
2018-11-27T10:14:21.193Z,28.13
2018-11-27T10:15:21.186Z,28.13
2018-11-27T10:16:21.196Z,33.75
2018-11-27T10:17:21.177Z,33.75
2018-11-27T10:18:21.172Z,33.75
2018-11-27T10:19:26.621Z,39.38
2018-11-27T10:20:21.174Z,39.38
2018-11-27T10:21:21.189Z,39.38
2018-11-27T10:22:21.155Z,39.38
2018-11-27T10:23:21.172Z,39.38
2018-11-27T10:24:21.171Z,39.38
2018-11-27T10:25:21.144Z,39.38
2018-11-27T10:26:21.176Z,39.38
2018-11-27T10:27:21.335Z,39.38
2018-11-27T10:28:21.144Z,39.38
2018-11-27T10:29:21.123Z,39.38
2018-11-27T10:30:21.321Z,39.38
2018-11-27T10:31:21.115Z,39.38
2018-11-27T10:32:21.323Z,39.38
2018-11-27T10:33:21.111Z,39.38
2018-11-27T10:34:21.118Z,33.75
2018-11-27T10:35:21.296Z,33.75
2018-11-27T10:36:21.311Z,33.75
2018-11-27T10:37:21.096Z,33.75
2018-11-27T10:38:21.086Z,33.75
2018-11-27T10:39:21.092Z,33.75
2018-11-27T10:40:21.103Z,33.75
2018-11-27T10:41:21.077Z,33.75
2018-11-27T10:42:21.063Z,33.75
2018-11-27T10:43:21.069Z,33.75
2018-11-27T10:44:21.053Z,33.75
2018-11-27T10:45:21.060Z,33.75
2018-11-27T10:46:21.060Z,33.75
2018-11-27T10:47:21.040Z,33.75
2018-11-27T10:48:21.253Z,33.75
2018-11-27T10:49:21.045Z,33.75
2018-11-27T10:50:21.233Z,33.75
2018-11-27T10:51:21.035Z,33.75
2018-11-27T10:52:21.036Z,33.75
2018-11-27T10:53:21.039Z,33.75
2018-11-27T10:54:21.234Z,33.75
2018-11-27T10:55:21.021Z,33.75
2018-11-27T10:56:21.216Z,33.75
2018-11-27T10:57:21.013Z,33.75
2018-11-27T10:58:21.010Z,33.75
2018-11-27T10:59:21.204Z,28.13
2018-11-27T11:00:20.982Z,28.13
2018-11-27T11:01:20.988Z,28.13
2018-11-27T11:02:20.990Z,33.75
2018-11-27T11:03:21.798Z,28.13
2018-11-27T11:04:20.978Z,28.13
2018-11-27T11:05:20.975Z,28.13
2018-11-27T11:06:20.969Z,28.13
2018-11-27T11:07:20.953Z,28.13
2018-11-27T11:08:21.160Z,22.50
2018-11-27T11:09:21.156Z,22.50
2018-11-27T11:10:20.944Z,22.50
2018-11-27T11:11:20.944Z,22.50
2018-11-27T11:12:20.928Z,22.50
2018-11-27T11:13:20.950Z,22.50
2018-11-27T11:14:20.926Z,22.50
2018-11-27T11:15:20.915Z,22.50
2018-11-27T11:16:20.913Z,22.50
2018-11-27T11:17:20.907Z,22.50
2018-11-27T11:18:20.919Z,22.50
2018-11-27T11:19:20.898Z,22.50
2018-11-27T11:20:21.100Z,22.50
2018-11-27T11:21:20.898Z,22.50
2018-11-27T11:22:21.089Z,22.50
2018-11-27T11:23:20.880Z,22.50
2018-11-27T11:24:20.905Z,22.50
2018-11-27T11:25:21.076Z,22.50
2018-11-27T11:26:20.870Z,22.50
2018-11-27T11:27:20.868Z,22.50
2018-11-27T11:28:20.868Z,22.50
2018-11-27T11:29:20.870Z,22.50
2018-11-27T11:30:20.859Z,22.50
2018-11-27T11:31:21.061Z,22.50
2018-11-27T11:32:20.846Z,22.50
2018-11-27T11:33:20.850Z,22.50
2018-11-27T11:34:20.838Z,22.50
2018-11-27T11:35:20.841Z,22.50
2018-11-27T11:36:20.837Z,22.50
2018-11-27T11:37:20.835Z,22.50
2018-11-27T11:38:20.818Z,22.50
2018-11-27T11:39:20.818Z,22.50
2018-11-27T11:40:20.830Z,16.88
2018-11-27T11:41:20.813Z,16.88
2018-11-27T11:42:20.800Z,16.88
2018-11-27T11:43:20.795Z,16.88
2018-11-27T11:44:21.002Z,22.50
2018-11-27T11:45:20.794Z,22.50
2018-11-27T11:46:20.785Z,22.50
2018-11-27T11:47:20.777Z,22.50
2018-11-27T11:48:20.774Z,22.50
2018-11-27T11:49:20.787Z,22.50
2018-11-27T11:50:20.780Z,22.50
2018-11-27T11:51:20.772Z,22.50
2018-11-27T11:52:20.756Z,22.50
2018-11-27T11:53:20.965Z,22.50
2018-11-27T11:54:20.749Z,22.50
2018-11-27T11:55:20.747Z,22.50
2018-11-27T11:56:20.954Z,16.88
2018-11-27T11:57:20.746Z,16.88
2018-11-27T11:58:20.734Z,16.88
2018-11-27T11:59:20.931Z,16.88
2018-11-27T12:00:20.723Z,16.88
2018-11-27T12:01:20.729Z,16.88
2018-11-27T12:02:20.730Z,16.88
2018-11-27T12:03:20.713Z,16.88
2018-11-27T12:04:20.709Z,16.88
2018-11-27T12:05:25.041Z,16.88
2018-11-27T12:06:20.702Z,16.88
2018-11-27T12:07:20.695Z,16.88
2018-11-27T12:08:20.689Z,16.88
2018-11-27T12:09:20.693Z,16.88
2018-11-27T12:10:20.891Z,16.88
2018-11-27T12:11:20.677Z,16.88
2018-11-27T12:12:20.672Z,16.88
2018-11-27T12:13:20.681Z,16.88
2018-11-27T12:14:20.680Z,16.88
2018-11-27T12:15:20.671Z,11.25
2018-11-27T12:16:20.670Z,11.25
2018-11-27T12:17:20.669Z,11.25
2018-11-27T12:18:20.652Z,11.25
2018-11-27T12:19:20.640Z,11.25
2018-11-27T12:20:20.637Z,16.88
2018-11-27T12:21:20.633Z,16.88
2018-11-27T12:22:20.833Z,16.88
2018-11-27T12:23:20.626Z,16.88
2018-11-27T12:24:20.643Z,16.88
2018-11-27T12:25:24.212Z,16.88
2018-11-27T12:26:20.816Z,16.88
2018-11-27T12:27:20.624Z,16.88
2018-11-27T12:28:20.613Z,16.88
2018-11-27T12:29:20.603Z,16.88
2018-11-27T12:30:20.597Z,16.88
2018-11-27T12:31:20.616Z,16.88
2018-11-27T12:32:20.590Z,16.88
2018-11-27T12:33:20.611Z,16.88
2018-11-27T12:34:20.611Z,16.88
2018-11-27T12:35:20.577Z,16.88
2018-11-27T12:36:20.573Z,16.88
2018-11-27T12:37:20.581Z,16.88
2018-11-27T12:38:20.577Z,16.88
2018-11-27T12:39:20.560Z,16.88
2018-11-27T12:40:20.557Z,16.88
2018-11-27T12:41:20.552Z,16.88
2018-11-27T12:42:20.546Z,16.88
2018-11-27T12:43:20.555Z,16.88
2018-11-27T12:44:20.537Z,16.88
2018-11-27T12:45:20.549Z,16.88
2018-11-27T12:46:20.545Z,16.88
2018-11-27T12:47:20.528Z,16.88
2018-11-27T12:48:20.522Z,16.88
2018-11-27T12:49:20.519Z,16.88
2018-11-27T12:50:20.514Z,11.25
2018-11-27T12:51:20.509Z,11.25
2018-11-27T12:52:20.513Z,16.88
2018-11-27T12:53:20.501Z,16.88
2018-11-27T12:54:20.507Z,16.88
2018-11-27T12:55:21.025Z,16.88
2018-11-27T12:56:20.501Z,16.88
2018-11-27T12:57:20.494Z,16.88
2018-11-27T12:58:20.482Z,11.25
2018-11-27T12:59:20.504Z,11.25
2018-11-27T13:00:20.485Z,11.25
2018-11-27T13:01:20.486Z,16.88
2018-11-27T13:02:20.473Z,11.25
2018-11-27T13:03:20.475Z,11.25
2018-11-27T13:04:20.455Z,11.25
2018-11-27T13:05:20.456Z,11.25
2018-11-27T13:06:20.648Z,11.25
2018-11-27T13:07:20.447Z,16.88
2018-11-27T13:08:20.437Z,16.88
2018-11-27T13:09:20.434Z,16.88